Snow/Ice From: 23-10-2018 22:46 Until: 24-10-2018 08:00 warning for: Snow/Ice Level: Yellow info button
suomi:
Liikennesää: Ajokeli on huono tienpintojen jäätymisen vuoksi.

svenska:
Trafikvädret: Väglaget är dåligt p.g.a. tillfrysning av vägytor.

english:
Traffic weather warning: Bad road conditions are expected because of ice-covered roads. 


Thunder radar more information blitzortung!


Löydät sääaseman tiedot myös:

European Weather Network

Finland Weather Exchange

Weather Underground

AWEKAS



Weather Underground säähistoriasivu

Päivittäin yhteenveto Tou 22, 2017 Yksiköt:  Englantilaiset    Metriset   Molemmat
« Edellinen Päivä
Seuraava Päivä »
Päivittäin Viikoittain Kuukausittain Vuosittain Mukautettu
  Korkea: Matala: Keskiarvo:
Lämpötila: TemperatureF °F 36.1 °F 52.9 °F
Kastepiste: DewpointF °F 32.2 °F 42 °F
Kosteus: Humidity % 47 % 67 %
Tuulen nopeus: WindSpeedMPH mph 0.0 mph 1.9 mph
Tuulenpuuska: WindSpeedGustMPH mph - -
Tuuli:- - SSW
Ilmanpaine: PressureIn in 29.73 in -
Sade: 0.00 in    
Historical Graphs
 
 
Taulukkotiedot Tou 22, 2017
Aika Lämpötila Kastepiste Ilmanpaine Tuuli Tuulen nopeus Tuulenpuuska Kosteus Sademäärä (tunneittain)
TemperatureF °F DewpointF °F PressureIn in Calm     Humidity % HourlyPrecipIn in
00:00 46.2 °F 36.0 °F 29.91 in Calm     67 % 0.00 in
00:15 45.5 °F 34.5 °F 29.90 in Calm     65 % 0.00 in
00:30 44.6 °F 35.4 °F 29.90 in Calm     70 % 0.00 in
00:45 43.5 °F 34.5 °F 29.90 in Calm     70 % 0.00 in
01:00 42.6 °F 34.0 °F 29.90 in Calm     71 % 0.00 in
01:15 42.3 °F 34.5 °F 29.90 in Calm     74 % 0.00 in
01:30 41.7 °F 33.6 °F 29.89 in Calm     73 % 0.00 in
01:45 41.2 °F 33.8 °F 29.89 in Calm     75 % 0.00 in
02:00 40.6 °F 33.8 °F 29.88 in Calm     76 % 0.00 in
02:15 40.1 °F 33.8 °F 29.88 in Calm     78 % 0.00 in
02:30 39.7 °F 33.4 °F 29.88 in Calm     78 % 0.00 in
02:45 39.2 °F 33.6 °F 29.87 in Calm     80 % 0.00 in
03:00 39.2 °F 33.6 °F 29.87 in Calm     80 % 0.00 in
03:15 38.8 °F 33.3 °F 29.86 in Calm     80 % 0.00 in
03:30 38.1 °F 33.3 °F 29.86 in Calm     82 % 0.00 in
03:45 37.9 °F 33.3 °F 29.86 in Calm     83 % 0.00 in
04:00 37.8 °F 33.1 °F 29.85 in Calm     83 % 0.00 in
04:15 37.0 °F 32.7 °F 29.85 in Calm     84 % 0.00 in
04:30 36.9 °F 32.4 °F 29.85 in Calm     84 % 0.00 in
04:45 36.7 °F 32.5 °F 29.84 in Calm     85 % 0.00 in
05:00 36.5 °F 32.4 °F 29.84 in Calm     85 % 0.00 in
05:15 36.3 °F 32.2 °F 29.84 in Calm     85 % 0.00 in
05:30 36.1 °F 32.7 °F 29.83 in Calm     87 % 0.00 in
05:45 37.4 °F 33.6 °F 29.83 in Calm     86 % 0.00 in
06:00 38.3 °F 34.2 °F 29.83 in Calm     85 % 0.00 in
06:15 39.6 °F 34.7 °F 29.83 in Calm   2.0 mph 83 % 0.00 in
06:30 41.2 °F 35.4 °F 29.83 in Calm   3.0 mph 80 % 0.00 in
06:45 42.6 °F 36.0 °F 29.82 in Calm   1.0 mph 77 % 0.00 in
07:00 44.1 °F 36.9 °F 29.82 in Calm   3.0 mph 76 % 0.00 in
07:15 46.2 °F 37.4 °F 29.82 in South 1.0 mph 5.0 mph 71 % 0.00 in
07:30 47.5 °F 38.1 °F 29.81 in South 1.0 mph 4.0 mph 70 % 0.00 in
07:45 48.6 °F 38.8 °F 29.81 in Calm   3.0 mph 69 % 0.00 in
08:00 50.2 °F 39.6 °F 29.80 in South 1.0 mph 5.0 mph 67 % 0.00 in
08:15 51.4 °F 41.4 °F 29.80 in South 2.0 mph 6.0 mph 68 % 0.00 in
08:30 52.9 °F 41.9 °F 29.80 in Calm   3.0 mph 66 % 0.00 in
08:45 54.7 °F 42.8 °F 29.80 in South 1.0 mph 5.0 mph 64 % 0.00 in
09:00 56.8 °F 44.1 °F 29.79 in Calm   5.0 mph 62 % 0.00 in
09:15 58.6 °F 45.3 °F 29.79 in SSE 1.0 mph 5.0 mph 61 % 0.00 in
09:30 60.4 °F 46.6 °F 29.78 in Calm   2.0 mph 60 % 0.00 in
09:45 62.4 °F 47.8 °F 29.78 in SSE 1.0 mph 5.0 mph 59 % 0.00 in
10:00 63.3 °F 48.7 °F 29.78 in SSW 2.0 mph 6.0 mph 59 % 0.00 in
10:15 64.2 °F 51.1 °F 29.78 in SSW 2.0 mph 7.0 mph 62 % 0.00 in
10:45 65.1 °F 50.9 °F 29.77 in SSW 3.0 mph 9.0 mph 60 % 0.00 in
11:00 66.2 °F 52.0 °F 29.77 in SSW 3.0 mph 6.0 mph 60 % 0.00 in
11:15 66.9 °F 52.5 °F 29.76 in SSW 3.0 mph 9.0 mph 60 % 0.00 in
11:30 67.1 °F 51.8 °F 29.76 in SSW 4.0 mph 10.0 mph 58 % 0.00 in
11:45 67.5 °F 52.7 °F 29.76 in SSW 2.0 mph 9.0 mph 59 % 0.00 in
12:00 68.4 °F 52.9 °F 29.76 in South 4.0 mph 8.0 mph 58 % 0.00 in
12:15 68.5 °F 53.1 °F 29.76 in SW 2.0 mph 9.0 mph 58 % 0.00 in
12:30 68.2 °F 52.9 °F 29.76 in SSW 4.0 mph 11.0 mph 58 % 0.00 in
12:45 69.3 °F 53.4 °F 29.75 in WSW 2.0 mph 9.0 mph 57 % 0.00 in
13:00 68.9 °F 53.1 °F 29.75 in SSW 4.0 mph 11.0 mph 57 % 0.00 in
13:15 69.3 °F 52.9 °F 29.75 in SW 3.0 mph 12.0 mph 56 % 0.00 in
13:30 68.7 °F 53.2 °F 29.74 in SSW 4.0 mph 10.0 mph 58 % 0.00 in
13:45 69.6 °F 53.2 °F 29.74 in SSW 3.0 mph 10.0 mph 56 % 0.00 in
14:00 69.4 °F 51.1 °F 29.74 in SSW 4.0 mph 10.0 mph 52 % 0.00 in
14:15 69.3 °F 51.3 °F 29.74 in SSW 5.0 mph 11.0 mph 53 % 0.00 in
14:30 70.2 °F 51.8 °F 29.73 in SSW 3.0 mph 10.0 mph 52 % 0.00 in
14:45 70.2 °F 50.7 °F 29.73 in SW 5.0 mph 12.0 mph 50 % 0.00 in
15:00 69.4 °F 51.1 °F 29.73 in SW 3.0 mph 10.0 mph 52 % 0.00 in
15:15 69.3 °F 49.3 °F 29.73 in SW 5.0 mph 13.0 mph 49 % 0.00 in
15:30 68.5 °F 49.1 °F 29.73 in SW 4.0 mph 10.0 mph 50 % 0.00 in
15:45 69.3 °F 48.7 °F 29.74 in WSW 4.0 mph 14.0 mph 48 % 0.00 in
16:00 67.5 °F 48.0 °F 29.74 in SW 4.0 mph 13.0 mph 50 % 0.00 in
16:15 68.2 °F 47.1 °F 29.74 in SW 5.0 mph 11.0 mph 47 % 0.00 in
16:30 65.1 °F 45.5 °F 29.74 in SSW 6.0 mph 15.0 mph 49 % 0.00 in
16:45 64.6 °F 46.0 °F 29.75 in SSW 7.0 mph 15.0 mph 51 % 0.00 in
17:00 65.7 °F 46.9 °F 29.74 in SW 3.0 mph 8.0 mph 51 % 0.00 in
17:15 65.1 °F 45.5 °F 29.74 in SW 5.0 mph 11.0 mph 49 % 0.00 in
17:30 62.8 °F 45.9 °F 29.75 in SSW 5.0 mph 14.0 mph 54 % 0.00 in
17:45 59.7 °F 45.9 °F 29.75 in SSW 6.0 mph 16.0 mph 60 % 0.00 in
18:00 57.4 °F 45.1 °F 29.75 in SSW 6.0 mph 16.0 mph 64 % 0.00 in
18:15 55.8 °F 45.3 °F 29.76 in SSW 5.0 mph 12.0 mph 68 % 0.00 in
18:30 54.9 °F 45.3 °F 29.76 in SSW 3.0 mph 9.0 mph 70 % 0.00 in
18:45 55.0 °F 45.5 °F 29.76 in SW 3.0 mph 8.0 mph 70 % 0.00 in
19:00 54.3 °F 44.8 °F 29.76 in SSW 3.0 mph 12.0 mph 70 % 0.00 in
19:15 54.0 °F 43.9 °F 29.76 in SSW 4.0 mph 12.0 mph 69 % 0.00 in
19:30 53.2 °F 43.7 °F 29.76 in SSW 4.0 mph 12.0 mph 70 % 0.00 in
19:45 52.5 °F 43.5 °F 29.76 in SSW 5.0 mph 9.0 mph 71 % 0.00 in
20:00 52.5 °F 43.9 °F 29.76 in SSW 3.0 mph 9.0 mph 72 % 0.00 in
20:15 52.7 °F 43.5 °F 29.76 in SSW 2.0 mph 10.0 mph 71 % 0.00 in
20:30 52.3 °F 42.4 °F 29.76 in SW 2.0 mph 8.0 mph 69 % 0.00 in
20:45 51.8 °F 41.9 °F 29.76 in SSW 3.0 mph 7.0 mph 69 % 0.00 in
21:00 51.4 °F 41.7 °F 29.76 in SSW 3.0 mph 8.0 mph 69 % 0.00 in
21:15 51.1 °F 41.4 °F 29.76 in SSW 2.0 mph 8.0 mph 69 % 0.00 in
21:30 50.7 °F 41.2 °F 29.76 in SW 3.0 mph 7.0 mph 70 % 0.00 in
21:45 50.4 °F 41.0 °F 29.76 in WSW 2.0 mph 7.0 mph 70 % 0.00 in
22:00 50.4 °F 41.2 °F 29.76 in Calm   4.0 mph 71 % 0.00 in
22:15 50.0 °F 42.4 °F 29.76 in Calm   2.0 mph 75 % 0.00 in
22:30 49.6 °F 42.1 °F 29.76 in Calm     75 % 0.00 in
22:45 49.3 °F 41.7 °F 29.75 in Calm   3.0 mph 75 % 0.00 in
23:00 49.3 °F 41.9 °F 29.75 in Calm     76 % 0.00 in
23:15 48.9 °F 42.1 °F 29.75 in SW 1.0 mph 4.0 mph 77 % 0.00 in
23:30 48.7 °F 41.9 °F 29.75 in Calm   3.0 mph 77 % 0.00 in
23:45 48.7 °F 42.3 °F 29.75 in SSW 1.0 mph 4.0 mph 78 % 0.00 in
Esan sääasema
Terveisin Weather Underground - 2.75 mb

Alkuperäinen skripti  Jim McMurry - jmcmurry@mwt.net Sovitettu myös templatelle  Wim van der Kuil - Leuven-Template.eu

Laitteet joita käytämme:

Sääasema
Davis VP2

Sääasemaohjelma
Cumulus

Sääaseman tietokone
Asus EeePC

Palveluntarjoaja
Suncomet

Davis VP2

Cumulus

Asus EeePC

Suncomet